createdAt,value
2022-10-22T00:02:23.503Z,1.48
2022-10-22T00:04:51.110Z,1.20
2022-10-22T00:07:19.000Z,1.00
2022-10-22T00:09:46.841Z,1.33
2022-10-22T00:12:15.521Z,1.40
2022-10-22T00:14:42.718Z,1.10
2022-10-22T00:17:11.451Z,1.00
2022-10-22T00:19:39.315Z,1.13
2022-10-22T00:22:07.280Z,0.98
2022-10-22T00:24:35.139Z,0.90
2022-10-22T00:27:02.371Z,1.20
2022-10-22T00:29:29.393Z,1.25
2022-10-22T00:31:56.718Z,1.60
2022-10-22T00:34:24.216Z,1.50
2022-10-22T00:36:52.025Z,1.23
2022-10-22T00:39:21.285Z,1.15
2022-10-22T00:41:49.680Z,1.35
2022-10-22T00:44:58.372Z,1.35
2022-10-22T00:47:28.151Z,1.27
2022-10-22T00:49:56.218Z,1.38
2022-10-22T00:52:23.245Z,1.02
2022-10-22T00:54:51.349Z,1.33
2022-10-22T00:57:19.802Z,1.45
2022-10-22T00:59:47.296Z,1.63
2022-10-22T01:02:14.883Z,1.33
2022-10-22T01:04:42.132Z,1.77
2022-10-22T01:07:17.763Z,1.50
2022-10-22T01:10:10.962Z,2.22
2022-10-22T01:12:58.975Z,2.25
2022-10-22T01:15:51.520Z,2.38
2022-10-22T01:18:27.166Z,2.17
2022-10-22T01:21:22.782Z,2.00
2022-10-22T01:24:09.715Z,1.58
2022-10-22T01:27:13.968Z,1.35
2022-10-22T01:29:42.696Z,1.40
2022-10-22T01:32:14.166Z,1.60
2022-10-22T01:34:44.390Z,1.40
2022-10-22T01:37:14.689Z,0.95
2022-10-22T01:39:45.052Z,1.40
2022-10-22T01:42:15.281Z,0.73
2022-10-22T01:44:42.671Z,1.05
2022-10-22T01:47:24.462Z,1.13
2022-10-22T01:49:54.225Z,1.10
2022-10-22T01:52:29.643Z,0.75
2022-10-22T01:55:23.051Z,0.90
2022-10-22T01:58:16.404Z,0.95
2022-10-22T02:00:50.572Z,0.90
2022-10-22T02:03:25.779Z,1.42
2022-10-22T02:05:57.075Z,1.17
2022-10-22T02:08:30.995Z,1.75
2022-10-22T02:10:59.499Z,1.20
2022-10-22T02:13:31.434Z,1.38
2022-10-22T02:15:59.755Z,1.10
2022-10-22T02:18:29.763Z,1.20
2022-10-22T02:20:58.450Z,0.90
2022-10-22T02:23:25.511Z,1.20
2022-10-22T02:26:01.253Z,0.88
2022-10-22T02:28:46.416Z,1.23
2022-10-22T02:31:19.240Z,1.00
2022-10-22T02:33:50.332Z,1.08
2022-10-22T02:36:18.797Z,1.20
2022-10-22T02:38:47.330Z,1.88
2022-10-22T02:41:15.948Z,1.92
2022-10-22T02:43:45.082Z,1.90
2022-10-22T02:46:12.296Z,2.20
2022-10-22T02:48:39.102Z,2.88
2022-10-22T02:51:06.057Z,3.03
2022-10-22T02:53:33.213Z,1.70
2022-10-22T02:56:00.283Z,1.45
2022-10-22T02:58:27.111Z,1.95
2022-10-22T03:00:54.075Z,2.47
2022-10-22T03:03:20.986Z,2.17
2022-10-22T03:05:48.018Z,2.75
2022-10-22T03:08:14.815Z,2.25
2022-10-22T03:10:41.674Z,2.38
2022-10-22T03:13:08.527Z,1.88
2022-10-22T03:15:35.328Z,2.03
2022-10-22T03:18:02.213Z,1.60
2022-10-22T03:20:29.105Z,1.33
2022-10-22T03:22:56.683Z,1.42
2022-10-22T03:25:26.970Z,1.50
2022-10-22T03:28:01.322Z,1.65
2022-10-22T03:30:28.144Z,1.23
2022-10-22T03:32:54.962Z,1.40
2022-10-22T03:35:21.944Z,1.65
2022-10-22T03:37:48.901Z,2.05
2022-10-22T03:40:15.930Z,1.60
2022-10-22T03:42:43.269Z,1.40
2022-10-22T03:45:10.639Z,0.93
2022-10-22T03:47:37.883Z,1.63
2022-10-22T03:50:06.185Z,0.95
2022-10-22T03:52:39.991Z,0.77
2022-10-22T03:55:08.105Z,0.70
2022-10-22T03:57:34.957Z,1.30
2022-10-22T04:00:01.967Z,0.70
2022-10-22T04:02:28.805Z,0.80
2022-10-22T04:04:55.610Z,0.80
2022-10-22T04:07:22.489Z,1.08
2022-10-22T04:09:49.290Z,1.30
2022-10-22T04:12:16.088Z,1.13
2022-10-22T04:14:43.035Z,1.00
2022-10-22T04:17:09.861Z,1.08
2022-10-22T04:19:36.900Z,1.35
2022-10-22T04:22:04.023Z,1.33
2022-10-22T04:24:32.115Z,1.40
2022-10-22T04:26:59.297Z,1.60
2022-10-22T04:29:26.396Z,1.80
2022-10-22T04:31:53.368Z,1.17
2022-10-22T04:34:20.262Z,0.63
2022-10-22T04:36:47.129Z,1.13
2022-10-22T04:39:14.950Z,0.80
2022-10-22T04:41:41.788Z,0.60
2022-10-22T04:44:12.333Z,0.47
2022-10-22T04:46:43.747Z,0.50
2022-10-22T04:49:10.588Z,0.70
2022-10-22T04:51:37.627Z,0.80
2022-10-22T04:54:04.704Z,0.80
2022-10-22T04:56:32.821Z,1.00
2022-10-22T04:59:05.329Z,1.10
2022-10-22T05:01:41.747Z,1.13
2022-10-22T05:04:12.595Z,1.20
2022-10-22T05:06:39.551Z,1.13
2022-10-22T05:09:12.807Z,1.23
2022-10-22T05:11:46.191Z,1.10
2022-10-22T05:14:13.362Z,1.42
2022-10-22T05:16:40.369Z,1.25
2022-10-22T05:19:07.755Z,1.08
2022-10-22T05:21:35.407Z,1.25
2022-10-22T05:24:02.249Z,1.10
2022-10-22T05:26:29.606Z,1.30
2022-10-22T05:28:56.865Z,1.35
2022-10-22T05:31:24.010Z,1.70
2022-10-22T05:33:50.962Z,1.92
2022-10-22T05:36:22.502Z,1.77
2022-10-22T05:38:50.008Z,1.80
2022-10-22T05:41:19.159Z,2.13
2022-10-22T05:43:46.779Z,2.83
2022-10-22T05:46:21.258Z,3.08
2022-10-22T05:48:54.041Z,4.05
2022-10-22T05:51:21.407Z,3.97
2022-10-22T05:53:53.220Z,4.22
2022-10-22T05:56:20.366Z,4.35
2022-10-22T05:58:47.760Z,4.65
2022-10-22T06:01:22.057Z,4.78
2022-10-22T06:03:49.668Z,5.75
2022-10-22T06:06:25.548Z,5.55
2022-10-22T06:08:53.553Z,6.35
2022-10-22T06:11:22.473Z,8.25
2022-10-22T06:13:50.641Z,7.68
2022-10-22T06:16:17.673Z,9.93
2022-10-22T06:18:44.715Z,9.32
2022-10-22T06:21:14.690Z,9.07
2022-10-22T06:23:42.585Z,9.68
2022-10-22T06:26:10.974Z,9.15
2022-10-22T06:28:38.792Z,9.98
2022-10-22T06:31:06.430Z,9.82
2022-10-22T06:33:37.138Z,9.05
2022-10-22T06:36:12.420Z,10.35
2022-10-22T06:38:39.588Z,9.15
2022-10-22T06:41:09.392Z,9.50
2022-10-22T06:43:36.421Z,9.13
2022-10-22T06:46:05.975Z,8.77
2022-10-22T06:48:33.554Z,9.18
2022-10-22T06:51:04.915Z,8.20
2022-10-22T06:53:31.886Z,8.27
2022-10-22T06:55:58.915Z,9.18
2022-10-22T06:58:25.704Z,8.68
2022-10-22T07:01:13.477Z,9.38
2022-10-22T07:03:41.856Z,9.82
2022-10-22T07:06:11.083Z,9.57
2022-10-22T07:08:39.248Z,9.43
2022-10-22T07:11:08.823Z,10.52
2022-10-22T07:13:36.155Z,9.90
2022-10-22T07:16:03.994Z,10.45
2022-10-22T07:18:31.463Z,9.90
2022-10-22T07:20:58.299Z,9.45
2022-10-22T07:23:25.410Z,8.68
2022-10-22T07:25:52.787Z,9.77
2022-10-22T07:28:20.120Z,9.95
2022-10-22T07:30:47.577Z,9.85
2022-10-22T07:33:14.686Z,9.93
2022-10-22T07:35:42.401Z,9.70
2022-10-22T07:38:09.687Z,9.55
2022-10-22T07:40:37.044Z,8.90
2022-10-22T07:43:04.906Z,9.25
2022-10-22T07:45:31.925Z,8.50
2022-10-22T07:48:00.515Z,8.35
2022-10-22T07:50:27.305Z,8.57
2022-10-22T07:52:56.118Z,7.40
2022-10-22T07:55:25.271Z,7.45
2022-10-22T07:57:52.203Z,6.60
2022-10-22T08:00:21.829Z,5.22
2022-10-22T08:02:51.387Z,5.38
2022-10-22T08:05:18.594Z,4.50
2022-10-22T08:07:45.402Z,3.60
2022-10-22T08:10:12.746Z,3.15
2022-10-22T08:12:40.687Z,3.03
2022-10-22T08:15:08.441Z,3.25
2022-10-22T08:17:35.383Z,3.10
2022-10-22T08:20:02.255Z,3.00
2022-10-22T08:22:29.129Z,2.67
2022-10-22T08:25:08.903Z,2.83
2022-10-22T08:27:36.236Z,2.75
2022-10-22T08:30:04.975Z,2.30
2022-10-22T08:32:32.310Z,2.60
2022-10-22T08:34:59.212Z,2.35
2022-10-22T08:37:26.057Z,1.90
2022-10-22T08:39:52.920Z,2.00
2022-10-22T08:42:43.793Z,2.10
2022-10-22T08:45:19.235Z,2.25
2022-10-22T08:48:07.074Z,2.10
2022-10-22T08:50:48.520Z,1.80
2022-10-22T08:53:22.136Z,1.67
2022-10-22T08:55:53.489Z,1.60
2022-10-22T08:58:31.971Z,1.38
2022-10-22T09:01:13.517Z,1.50
2022-10-22T09:04:22.117Z,1.80
2022-10-22T09:06:50.845Z,1.52
2022-10-22T09:09:21.276Z,1.23
2022-10-22T09:11:51.930Z,1.60
2022-10-22T09:14:24.647Z,1.20
2022-10-22T09:17:10.073Z,0.98
2022-10-22T09:19:45.568Z,1.23
2022-10-22T09:25:27.561Z,1.00
2022-10-22T09:27:58.538Z,1.10
2022-10-22T09:30:37.873Z,1.05
2022-10-22T09:33:07.723Z,0.98
2022-10-22T09:35:47.057Z,0.93
2022-10-22T09:38:15.953Z,1.20
2022-10-22T09:40:48.310Z,1.27
2022-10-22T09:43:15.629Z,1.08
2022-10-22T09:45:43.331Z,1.20
2022-10-22T09:48:15.015Z,1.15
2022-10-22T09:50:54.943Z,1.05
2022-10-22T09:53:28.702Z,1.63
2022-10-22T09:56:01.246Z,0.80
2022-10-22T09:58:28.385Z,0.70
2022-10-22T10:01:01.054Z,1.02
2022-10-22T10:03:31.684Z,0.88
2022-10-22T10:06:03.066Z,0.80
2022-10-22T10:08:33.233Z,0.90
2022-10-22T10:11:04.954Z,1.38
2022-10-22T10:13:52.173Z,1.00
2022-10-22T10:16:22.053Z,0.60
2022-10-22T10:19:00.224Z,0.80
2022-10-22T10:21:33.212Z,0.85
2022-10-22T10:24:26.967Z,0.70
2022-10-22T10:27:16.857Z,0.80
2022-10-22T10:29:58.328Z,1.00
2022-10-22T10:32:37.180Z,1.00
2022-10-22T10:35:09.750Z,0.68
2022-10-22T10:37:47.111Z,0.90
2022-10-22T10:40:32.658Z,0.90
2022-10-22T10:43:10.034Z,0.70
2022-10-22T10:45:43.859Z,0.80
2022-10-22T10:48:23.653Z,0.93
2022-10-22T10:50:56.796Z,0.70
2022-10-22T10:53:32.655Z,1.13
2022-10-22T10:56:10.173Z,0.90
2022-10-22T10:58:57.024Z,0.95
2022-10-22T11:02:15.104Z,0.80
2022-10-22T11:04:50.898Z,0.90
2022-10-22T11:07:34.104Z,0.80
2022-10-22T11:10:29.896Z,1.00
2022-10-22T11:13:11.495Z,0.82
2022-10-22T11:15:40.238Z,0.80
2022-10-22T11:18:22.420Z,0.63
2022-10-22T11:21:03.659Z,0.93
2022-10-22T11:23:57.596Z,0.80
2022-10-22T11:26:36.486Z,0.93
2022-10-22T11:29:07.235Z,0.70
2022-10-22T11:31:34.409Z,0.68
2022-10-22T11:34:34.607Z,1.10
2022-10-22T11:37:04.142Z,0.63
2022-10-22T11:39:36.859Z,0.82
2022-10-22T11:42:11.783Z,0.70
2022-10-22T11:45:21.572Z,0.90
2022-10-22T11:48:10.494Z,0.90
2022-10-22T11:51:00.295Z,1.02
2022-10-22T11:53:39.047Z,1.13
2022-10-22T11:56:13.068Z,1.08
2022-10-22T11:58:44.731Z,1.02
2022-10-22T12:01:11.579Z,0.80
2022-10-22T12:03:51.598Z,0.60
2022-10-22T12:06:27.024Z,0.60
2022-10-22T12:08:56.498Z,0.70
2022-10-22T12:11:47.847Z,0.60
2022-10-22T12:14:20.563Z,1.20
2022-10-22T12:16:56.094Z,1.35
2022-10-22T12:19:23.849Z,0.93
2022-10-22T12:22:00.028Z,0.80
2022-10-22T12:24:33.331Z,0.65
2022-10-22T12:27:00.183Z,1.08
2022-10-22T12:29:28.538Z,0.68
2022-10-22T12:31:55.967Z,0.60
2022-10-22T12:34:25.001Z,0.90
2022-10-22T12:36:53.687Z,0.80
2022-10-22T12:39:25.352Z,0.70
2022-10-22T12:41:54.307Z,0.68
2022-10-22T12:44:21.145Z,0.80
2022-10-22T12:46:52.963Z,0.80
2022-10-22T12:49:34.334Z,0.60
2022-10-22T12:52:05.872Z,0.68
2022-10-22T12:54:35.319Z,0.55
2022-10-22T12:57:02.456Z,1.08
2022-10-22T12:59:40.299Z,0.68
2022-10-22T13:02:21.704Z,0.60
2022-10-22T13:05:07.362Z,0.80
2022-10-22T13:07:44.356Z,0.93
2022-10-22T13:10:30.869Z,0.70
2022-10-22T13:12:58.867Z,0.95
2022-10-22T13:15:39.090Z,0.70
2022-10-22T13:18:18.466Z,0.90
2022-10-22T13:20:57.759Z,1.20
2022-10-22T13:23:26.673Z,0.70
2022-10-22T13:26:19.874Z,0.93
2022-10-22T13:28:55.475Z,1.00
2022-10-22T13:31:28.294Z,0.57
2022-10-22T13:33:57.655Z,0.85
2022-10-22T13:36:25.028Z,0.40
2022-10-22T13:38:51.918Z,0.70
2022-10-22T13:41:33.744Z,0.47
2022-10-22T13:44:00.581Z,0.57
2022-10-22T13:46:27.700Z,0.70
2022-10-22T13:48:56.471Z,0.40
2022-10-22T13:51:28.034Z,0.50
2022-10-22T13:53:54.884Z,0.70
2022-10-22T13:56:22.533Z,0.50
2022-10-22T13:58:49.884Z,0.80
2022-10-22T14:01:27.564Z,0.68
2022-10-22T14:03:59.506Z,1.27
2022-10-22T14:06:29.960Z,0.85
2022-10-22T14:08:58.924Z,0.90
2022-10-22T14:11:31.256Z,0.90
2022-10-22T14:13:58.778Z,0.55
2022-10-22T14:16:28.542Z,0.43
2022-10-22T14:18:56.256Z,0.75
2022-10-22T14:21:23.535Z,0.35
2022-10-22T14:23:51.718Z,0.50
2022-10-22T14:26:32.900Z,1.05
2022-10-22T14:29:16.228Z,0.40
2022-10-22T14:31:44.877Z,0.50
2022-10-22T14:34:13.562Z,0.90
2022-10-22T14:36:43.518Z,0.40
2022-10-22T14:39:10.399Z,0.60
2022-10-22T14:41:37.666Z,0.40
2022-10-22T14:44:04.655Z,0.50
2022-10-22T14:46:31.569Z,0.63
2022-10-22T14:48:58.425Z,0.63
2022-10-22T14:51:25.240Z,0.60
2022-10-22T14:53:52.000Z,0.50
2022-10-22T14:56:22.413Z,0.52
2022-10-22T14:58:50.030Z,0.32
2022-10-22T15:01:16.964Z,0.57
2022-10-22T15:03:43.931Z,0.60
2022-10-22T15:06:11.371Z,0.60
2022-10-22T15:08:39.408Z,0.88
2022-10-22T15:11:08.619Z,2.35
2022-10-22T15:13:35.679Z,1.10
2022-10-22T15:16:06.363Z,1.77
2022-10-22T15:18:33.172Z,1.00
2022-10-22T15:21:02.878Z,1.25
2022-10-22T15:23:30.563Z,2.08
2022-10-22T15:25:57.622Z,1.85
2022-10-22T15:28:25.143Z,7.45
2022-10-22T15:30:56.227Z,6.10
2022-10-22T15:33:23.385Z,12.57
2022-10-22T15:35:50.237Z,1.88
2022-10-22T15:38:17.522Z,4.18
2022-10-22T15:40:44.748Z,2.10
2022-10-22T15:43:12.071Z,1.70
2022-10-22T15:45:39.524Z,1.90
2022-10-22T15:48:06.432Z,1.85
2022-10-22T15:50:38.455Z,2.63
2022-10-22T15:53:05.526Z,2.03
2022-10-22T15:55:32.309Z,2.50
2022-10-22T15:58:01.883Z,2.63
2022-10-22T16:00:31.206Z,2.15
2022-10-22T16:02:57.965Z,2.45
2022-10-22T16:05:26.741Z,2.38
2022-10-22T16:07:55.760Z,5.68
2022-10-22T16:10:22.827Z,9.32
2022-10-22T16:12:51.615Z,11.43
2022-10-22T16:15:18.402Z,9.68
2022-10-22T16:17:45.185Z,10.50
2022-10-22T16:22:39.912Z,6.75
2022-10-22T16:25:07.503Z,4.75
2022-10-22T16:27:34.312Z,4.40
2022-10-22T16:30:01.102Z,3.30
2022-10-22T16:32:27.986Z,3.80
2022-10-22T16:34:54.739Z,2.88
2022-10-22T16:37:21.552Z,5.30
2022-10-22T16:39:49.519Z,4.20
2022-10-22T16:42:16.338Z,2.83
2022-10-22T16:44:43.150Z,2.88
2022-10-22T16:47:09.937Z,2.25
2022-10-22T16:49:36.710Z,3.45
2022-10-22T16:52:03.645Z,6.13
2022-10-22T16:54:30.651Z,8.35
2022-10-22T16:56:57.655Z,8.77
2022-10-22T16:59:24.484Z,10.50
2022-10-22T17:01:51.487Z,15.15
2022-10-22T17:04:18.702Z,19.85
2022-10-22T17:06:45.481Z,26.83
2022-10-22T17:09:12.495Z,13.90
2022-10-22T17:11:41.337Z,7.93
2022-10-22T17:14:09.820Z,4.45
2022-10-22T17:16:36.619Z,4.65
2022-10-22T17:19:04.378Z,4.10
2022-10-22T17:21:31.208Z,3.47
2022-10-22T17:23:58.590Z,3.90
2022-10-22T17:26:26.975Z,4.20
2022-10-22T17:28:54.701Z,6.13
2022-10-22T17:31:28.744Z,8.65
2022-10-22T17:33:57.033Z,7.53
2022-10-22T17:36:25.095Z,6.47
2022-10-22T17:38:54.256Z,5.65
2022-10-22T17:41:24.762Z,4.32
2022-10-22T17:43:51.791Z,4.30
2022-10-22T17:46:21.464Z,4.35
2022-10-22T17:48:52.955Z,4.25
2022-10-22T17:51:21.168Z,4.80
2022-10-22T17:53:50.125Z,5.20
2022-10-22T17:56:20.539Z,7.82
2022-10-22T17:58:47.392Z,9.02
2022-10-22T18:01:35.301Z,10.55
2022-10-22T18:04:05.291Z,12.65
2022-10-22T18:06:33.012Z,14.35
2022-10-22T18:09:00.126Z,12.38
2022-10-22T18:11:27.756Z,10.85
2022-10-22T18:13:56.730Z,14.10
2022-10-22T18:16:24.369Z,13.43
2022-10-22T18:18:53.628Z,12.00
2022-10-22T18:21:21.835Z,10.27
2022-10-22T18:23:48.840Z,25.25
2022-10-22T18:26:20.279Z,20.17
2022-10-22T18:28:49.811Z,14.70
2022-10-22T18:31:19.315Z,10.15
2022-10-22T18:33:46.367Z,8.95
2022-10-22T18:36:19.034Z,6.78
2022-10-22T18:39:05.489Z,6.18
2022-10-22T18:41:33.712Z,5.68
2022-10-22T18:44:02.693Z,7.35
2022-10-22T18:46:30.970Z,17.23
2022-10-22T18:48:58.639Z,9.43
2022-10-22T18:51:28.331Z,16.40
2022-10-22T18:54:05.121Z,21.60
2022-10-22T18:56:40.585Z,17.30
2022-10-22T18:59:13.367Z,11.98
2022-10-22T19:01:40.403Z,8.23
2022-10-22T19:04:07.285Z,14.45
2022-10-22T19:06:36.742Z,14.30
2022-10-22T19:09:04.740Z,15.75
2022-10-22T19:11:31.909Z,12.32
2022-10-22T19:13:58.859Z,11.68
2022-10-22T19:16:26.868Z,11.77
2022-10-22T19:19:03.632Z,12.32
2022-10-22T19:21:30.790Z,7.35
2022-10-22T19:23:59.302Z,6.57
2022-10-22T19:26:28.077Z,5.70
2022-10-22T19:28:55.930Z,4.75
2022-10-22T19:31:24.613Z,4.30
2022-10-22T19:33:52.372Z,7.90
2022-10-22T19:36:19.727Z,5.25
2022-10-22T19:38:48.834Z,4.57
2022-10-22T19:41:19.061Z,3.72
2022-10-22T19:43:49.258Z,3.80
2022-10-22T19:46:16.551Z,5.32
2022-10-22T19:48:43.340Z,7.97
2022-10-22T19:51:19.703Z,7.38
2022-10-22T19:53:47.607Z,7.95
2022-10-22T19:56:18.321Z,8.75
2022-10-22T19:58:45.368Z,6.25
2022-10-22T20:01:14.270Z,5.10
2022-10-22T20:03:41.671Z,3.20
2022-10-22T20:06:10.025Z,3.75
2022-10-22T20:08:38.045Z,3.22
2022-10-22T20:11:07.048Z,3.40
2022-10-22T20:13:34.670Z,3.55
2022-10-22T20:16:01.702Z,3.13
2022-10-22T20:18:28.959Z,3.30
2022-10-22T20:20:55.960Z,3.60
2022-10-22T20:23:22.772Z,3.60
2022-10-22T20:25:49.676Z,4.20
2022-10-22T20:28:16.558Z,3.67
2022-10-22T20:30:44.774Z,3.67
2022-10-22T20:33:15.790Z,3.72
2022-10-22T20:35:43.181Z,3.70
2022-10-22T20:38:14.171Z,3.95
2022-10-22T20:40:41.043Z,3.17
2022-10-22T20:43:10.503Z,3.20
2022-10-22T20:45:39.275Z,3.42
2022-10-22T20:48:06.508Z,3.88
2022-10-22T20:50:33.709Z,4.85
2022-10-22T20:53:00.567Z,4.80
2022-10-22T20:55:27.772Z,4.32
2022-10-22T20:57:55.123Z,3.90
2022-10-22T21:00:22.065Z,4.50
2022-10-22T21:02:49.180Z,4.95
2022-10-22T21:05:16.234Z,6.13
2022-10-22T21:07:43.403Z,5.10
2022-10-22T21:10:10.577Z,5.30
2022-10-22T21:12:41.887Z,4.40
2022-10-22T21:15:12.485Z,4.47
2022-10-22T21:17:42.755Z,4.03
2022-10-22T21:22:37.566Z,4.25
2022-10-22T21:25:04.634Z,3.95
2022-10-22T21:27:31.416Z,3.35
2022-10-22T21:29:58.164Z,3.60
2022-10-22T21:32:26.444Z,3.40
2022-10-22T21:34:53.239Z,4.57
2022-10-22T21:37:22.781Z,3.95
2022-10-22T21:39:49.655Z,3.70
2022-10-22T21:42:16.566Z,4.38
2022-10-22T21:44:43.332Z,4.72
2022-10-22T21:47:10.229Z,5.00
2022-10-22T21:49:37.024Z,5.32
2022-10-22T21:52:06.818Z,4.90
2022-10-22T21:54:35.704Z,3.90
2022-10-22T21:57:02.583Z,3.72
2022-10-22T21:59:32.232Z,4.00
2022-10-22T22:02:03.459Z,4.00
2022-10-22T22:04:32.844Z,4.05
2022-10-22T22:06:59.798Z,3.75
2022-10-22T22:09:26.630Z,4.32
2022-10-22T22:11:53.490Z,4.10
2022-10-22T22:14:20.329Z,4.35
2022-10-22T22:16:47.188Z,4.10
2022-10-22T22:19:14.147Z,4.57
2022-10-22T22:21:41.935Z,4.32
2022-10-22T22:24:11.546Z,4.85
2022-10-22T22:26:40.082Z,4.25
2022-10-22T22:29:06.961Z,4.65
2022-10-22T22:31:35.542Z,4.82
2022-10-22T22:34:16.312Z,4.35
2022-10-22T22:36:46.015Z,4.40
2022-10-22T22:39:15.773Z,4.00
2022-10-22T22:41:43.355Z,3.90
2022-10-22T22:44:10.500Z,3.97
2022-10-22T22:46:37.343Z,3.80
2022-10-22T22:49:04.626Z,3.75
2022-10-22T22:51:31.591Z,4.07
2022-10-22T22:54:00.122Z,4.13
2022-10-22T22:56:29.637Z,3.78
2022-10-22T22:58:57.181Z,3.80
2022-10-22T23:01:31.111Z,4.40
2022-10-22T23:04:12.267Z,3.70
2022-10-22T23:06:39.744Z,3.05
2022-10-22T23:09:08.739Z,3.00
2022-10-22T23:11:36.175Z,2.88
2022-10-22T23:14:06.686Z,3.13
2022-10-22T23:16:37.021Z,3.03
2022-10-22T23:19:05.379Z,3.40
2022-10-22T23:21:37.419Z,3.42
2022-10-22T23:24:08.398Z,2.95
2022-10-22T23:26:38.032Z,2.97
2022-10-22T23:29:08.371Z,3.50
2022-10-22T23:31:35.389Z,3.33
2022-10-22T23:34:02.212Z,4.18
2022-10-22T23:36:29.128Z,3.75
2022-10-22T23:38:55.946Z,3.80
2022-10-22T23:41:24.018Z,3.78
2022-10-22T23:43:51.342Z,3.50
2022-10-22T23:46:18.262Z,3.70
2022-10-22T23:48:45.869Z,3.50
2022-10-22T23:51:15.049Z,3.97
2022-10-22T23:53:43.984Z,4.03
2022-10-22T23:56:18.291Z,3.70
2022-10-22T23:58:45.424Z,3.50
